ENAT/ALF METAR and TAF weather

Enter ICAO airport designator
Station Type Date Time Source
ENAT METAR 2022/01/23 12:20 UTC NOAA

ENAT 231220Z 17006KT 110V230 CAVOK 03/M03 Q0993 RMK WIND 700FT 19020KT


Station Type Date Time Source
ENAT Decoded METAR 2022/01/23 12:20 UTC NOAA

Alta Lufthavn, Norway (ENAT) 69-59N 023-22E 3M
Jan 23, 2022 - 07:20 AM EST / 2022.01.23 1220 UTC
Wind: from the S (170 degrees) at 7 MPH (6 KT) (direction variable):0
Visibility: greater than 7 mile(s):0
Temperature: 37 F (3 C)
Dew Point: 26 F (-3 C)
Relative Humidity: 64%
Pressure (altimeter): 29.32 in. Hg (0993 hPa)
ob: ENAT 231220Z 17006KT 110V230 CAVOK 03/M03 Q0993 RMK WIND 700FT 19020KT
cycle: 12

Station Type Date Time Source
ENAT TAF 2008/11/30 23:00 UTC NOAA

TAF TAF ENAT 302300Z 3023/0102 22005KT 7000 -SN FEW008 BKN020
TEMPO 3023/0102 3000 -SN VV012

Example: see airport list